createdAt,value
2017-04-15T00:00:46.511Z,0
2017-04-15T00:01:46.757Z,0
2017-04-15T00:02:46.649Z,0
2017-04-15T00:03:46.564Z,0
2017-04-15T00:04:46.395Z,0
2017-04-15T00:05:46.671Z,0
2017-04-15T00:06:46.377Z,0
2017-04-15T00:07:46.330Z,0
2017-04-15T00:08:46.611Z,0
2017-04-15T00:09:46.342Z,0
2017-04-15T00:10:46.259Z,0
2017-04-15T00:11:45.941Z,0
2017-04-15T00:12:46.517Z,0
2017-04-15T00:13:46.212Z,0
2017-04-15T00:14:46.052Z,0
2017-04-15T00:15:46.279Z,0
2017-04-15T00:16:46.518Z,0
2017-04-15T00:17:46.567Z,0
2017-04-15T00:18:46.101Z,0
2017-04-15T00:19:46.101Z,0
2017-04-15T00:20:46.072Z,0
2017-04-15T00:21:46.032Z,0
2017-04-15T00:22:46.007Z,0
2017-04-15T00:23:45.995Z,0
2017-04-15T00:24:45.984Z,0
2017-04-15T00:25:45.703Z,0
2017-04-15T00:26:45.633Z,0
2017-04-15T00:27:45.601Z,0
2017-04-15T00:28:45.896Z,0
2017-04-15T00:29:45.567Z,0
2017-04-15T00:30:45.537Z,0
2017-04-15T00:31:46.138Z,0
2017-04-15T00:32:45.785Z,0
2017-04-15T00:33:46.082Z,0
2017-04-15T00:34:46.082Z,0
2017-04-15T00:35:46.045Z,0
2017-04-15T00:36:45.417Z,0
2017-04-15T00:37:45.717Z,0
2017-04-15T00:38:45.673Z,0
2017-04-15T00:39:45.701Z,0
2017-04-15T00:40:45.932Z,0
2017-04-15T00:41:45.910Z,0
2017-04-15T00:42:45.891Z,0
2017-04-15T00:43:45.362Z,0
2017-04-15T00:44:45.908Z,0
2017-04-15T00:45:45.540Z,0
2017-04-15T00:46:45.657Z,0
2017-04-15T00:47:45.514Z,0
2017-04-15T00:48:45.478Z,0
2017-04-15T00:49:45.154Z,0
2017-04-15T00:50:45.734Z,0
2017-04-15T00:51:45.704Z,0
2017-04-15T00:52:45.688Z,0
2017-04-15T00:53:45.703Z,0
2017-04-15T00:54:45.672Z,0
2017-04-15T00:55:45.453Z,0
2017-04-15T00:56:44.812Z,0
2017-04-15T00:57:45.284Z,0
2017-04-15T00:58:45.663Z,0
2017-04-15T00:59:45.534Z,0
2017-04-15T01:00:44.592Z,0
2017-04-15T01:01:45.498Z,0
2017-04-15T01:02:45.485Z,0
2017-04-15T01:03:45.450Z,0
2017-04-15T01:04:45.450Z,0
2017-04-15T01:05:45.404Z,0
2017-04-15T01:06:45.078Z,0
2017-04-15T01:07:45.070Z,0
2017-04-15T01:08:45.034Z,0
2017-04-15T01:09:44.709Z,0
2017-04-15T01:10:44.996Z,0
2017-04-15T01:11:44.691Z,0
2017-04-15T01:12:44.964Z,0
2017-04-15T01:13:44.626Z,0
2017-04-15T01:14:44.625Z,0
2017-04-15T01:15:44.896Z,0
2017-04-15T01:16:44.562Z,0
2017-04-15T01:17:44.896Z,0
2017-04-15T01:18:44.525Z,0
2017-04-15T01:19:44.872Z,0
2017-04-15T01:20:44.487Z,0
2017-04-15T01:21:45.105Z,0
2017-04-15T01:22:45.254Z,0
2017-04-15T01:23:45.094Z,0
2017-04-15T01:24:44.104Z,0
2017-04-15T01:25:44.683Z,0
2017-04-15T01:26:44.662Z,0
2017-04-15T01:27:44.124Z,0
2017-04-15T01:28:44.325Z,0
2017-04-15T01:29:44.974Z,0
2017-04-15T01:30:44.881Z,0
2017-04-15T01:31:44.925Z,0
2017-04-15T01:32:44.847Z,0
2017-04-15T01:33:44.530Z,0
2017-04-15T01:34:44.496Z,0
2017-04-15T01:35:44.170Z,0
2017-04-15T01:36:44.494Z,0
2017-04-15T01:37:44.144Z,0
2017-04-15T01:38:44.778Z,0
2017-04-15T01:39:44.439Z,0
2017-04-15T01:40:44.397Z,0
2017-04-15T01:41:44.370Z,0
2017-04-15T01:42:44.012Z,0
2017-04-15T01:43:44.305Z,0
2017-04-15T01:44:44.616Z,0
2017-04-15T01:45:44.573Z,0
2017-04-15T01:46:43.981Z,0
2017-04-15T01:47:43.657Z,0
2017-04-15T01:48:43.893Z,0
2017-04-15T01:49:44.534Z,0
2017-04-15T01:50:43.434Z,0
2017-04-15T01:51:44.194Z,0
2017-04-15T01:52:43.872Z,0
2017-04-15T01:53:43.849Z,0
2017-04-15T01:54:43.808Z,0
2017-04-15T01:55:44.152Z,0
2017-04-15T01:56:44.014Z,0
2017-04-15T01:57:43.456Z,0
2017-04-15T01:58:44.413Z,0
2017-04-15T01:59:44.186Z,0
2017-04-15T02:00:43.621Z,0
2017-04-15T02:01:43.937Z,0
2017-04-15T02:02:43.961Z,0
2017-04-15T02:03:43.571Z,0
2017-04-15T02:04:43.861Z,0
2017-04-15T02:05:43.828Z,0
2017-04-15T02:06:43.822Z,0
2017-04-15T02:07:43.395Z,0
2017-04-15T02:08:43.868Z,0
2017-04-15T02:09:43.432Z,0
2017-04-15T02:10:43.734Z,0
2017-04-15T02:11:43.092Z,0
2017-04-15T02:12:44.173Z,0
2017-04-15T02:13:43.666Z,0
2017-04-15T02:14:43.651Z,0
2017-04-15T02:15:43.672Z,0
2017-04-15T02:16:43.610Z,0
2017-04-15T02:17:43.659Z,0
2017-04-15T02:18:43.872Z,0
2017-04-15T02:19:43.241Z,0
2017-04-15T02:20:43.602Z,0
2017-04-15T02:21:43.515Z,0
2017-04-15T02:22:43.222Z,0
2017-04-15T02:23:43.150Z,0
2017-04-15T02:24:43.134Z,0
2017-04-15T02:25:43.742Z,0
2017-04-15T02:26:43.398Z,0
2017-04-15T02:27:43.562Z,0
2017-04-15T02:28:43.352Z,0
2017-04-15T02:29:43.342Z,0
2017-04-15T02:30:43.760Z,0
2017-04-15T02:31:43.604Z,0
2017-04-15T02:32:42.763Z,0
2017-04-15T02:33:43.243Z,0
2017-04-15T02:34:43.364Z,0
2017-04-15T02:35:42.940Z,0
2017-04-15T02:36:42.566Z,0
2017-04-15T02:37:43.495Z,0
2017-04-15T02:38:43.470Z,0
2017-04-15T02:39:43.134Z,0
2017-04-15T02:40:42.192Z,0
2017-04-15T02:41:43.092Z,0
2017-04-15T02:42:43.400Z,0
2017-04-15T02:43:43.042Z,0
2017-04-15T02:44:42.722Z,0
2017-04-15T02:45:43.463Z,0
2017-04-15T02:46:42.980Z,0
2017-04-15T02:47:42.963Z,0
2017-04-15T02:48:42.961Z,0
2017-04-15T02:49:42.306Z,0
2017-04-15T02:50:41.971Z,0
2017-04-15T02:51:42.299Z,0
2017-04-15T02:52:42.543Z,0
2017-04-15T02:53:43.241Z,0
2017-04-15T02:54:42.501Z,0
2017-04-15T02:55:43.166Z,0
2017-04-15T02:56:42.787Z,0
2017-04-15T02:57:42.804Z,0
2017-04-15T02:58:43.045Z,0
2017-04-15T02:59:42.704Z,0
2017-04-15T03:00:43.032Z,0
2017-04-15T03:01:42.781Z,0
2017-04-15T03:02:43.064Z,0
2017-04-15T03:03:42.312Z,0
2017-04-15T03:04:42.604Z,0
2017-04-15T03:05:42.570Z,0
2017-04-15T03:06:41.962Z,0
2017-04-15T03:07:42.227Z,0
2017-04-15T03:08:42.608Z,0
2017-04-15T03:09:41.922Z,0
2017-04-15T03:10:42.158Z,0
2017-04-15T03:11:42.570Z,0
2017-04-15T03:12:42.112Z,0
2017-04-15T03:13:42.103Z,0
2017-04-15T03:14:41.781Z,0
2017-04-15T03:15:41.761Z,0
2017-04-15T03:16:41.726Z,0
2017-04-15T03:17:42.332Z,0
2017-04-15T03:18:42.301Z,0
2017-04-15T03:19:42.281Z,0
2017-04-15T03:20:42.272Z,0
2017-04-15T03:21:41.930Z,0
2017-04-15T03:22:42.517Z,0
2017-04-15T03:23:42.215Z,0
2017-04-15T03:24:42.190Z,0
2017-04-15T03:25:41.851Z,0
2017-04-15T03:26:42.432Z,0
2017-04-15T03:27:42.425Z,0
2017-04-15T03:28:41.854Z,0
2017-04-15T03:29:41.864Z,0
2017-04-15T03:30:41.773Z,0
2017-04-15T03:31:42.340Z,0
2017-04-15T03:32:42.325Z,0
2017-04-15T03:33:41.424Z,0
2017-04-15T03:34:42.284Z,0
2017-04-15T03:35:41.959Z,0
2017-04-15T03:36:42.222Z,0
2017-04-15T03:37:41.638Z,0
2017-04-15T03:38:41.878Z,0
2017-04-15T03:39:42.165Z,0
2017-04-15T03:40:41.595Z,0
2017-04-15T03:41:41.926Z,0
2017-04-15T03:42:42.132Z,0
2017-04-15T03:43:41.154Z,0
2017-04-15T03:44:41.760Z,0
2017-04-15T03:45:41.816Z,0
2017-04-15T03:46:41.104Z,0
2017-04-15T03:47:41.096Z,0
2017-04-15T03:48:41.380Z,0
2017-04-15T03:49:41.958Z,0
2017-04-15T03:50:41.732Z,0
2017-04-15T03:51:41.611Z,0
2017-04-15T03:52:41.284Z,0
2017-04-15T03:53:41.584Z,0
2017-04-15T03:54:41.590Z,0
2017-04-15T03:55:40.907Z,0
2017-04-15T03:56:41.492Z,0
2017-04-15T03:57:41.783Z,0
2017-04-15T03:58:41.492Z,0
2017-04-15T03:59:41.753Z,0
2017-04-15T04:00:41.206Z,0
2017-04-15T04:01:41.692Z,0
2017-04-15T04:02:41.154Z,0
2017-04-15T04:03:41.077Z,0
2017-04-15T04:04:41.528Z,0
2017-04-15T04:05:41.021Z,0
2017-04-15T04:06:40.986Z,0
2017-04-15T04:07:41.383Z,0
2017-04-15T04:08:40.953Z,0
2017-04-15T04:09:40.929Z,0
2017-04-15T04:10:40.930Z,0
2017-04-15T04:11:41.508Z,0
2017-04-15T04:12:40.564Z,0
2017-04-15T04:13:41.256Z,0
2017-04-15T04:14:41.146Z,0
2017-04-15T04:15:41.226Z,0
2017-04-15T04:16:41.086Z,0
2017-04-15T04:17:41.080Z,0
2017-04-15T04:18:40.721Z,0
2017-04-15T04:19:41.024Z,0
2017-04-15T04:20:41.307Z,0
2017-04-15T04:21:40.983Z,0
2017-04-15T04:22:40.363Z,0
2017-04-15T04:23:40.652Z,0
2017-04-15T04:24:40.931Z,0
2017-04-15T04:25:40.938Z,0
2017-04-15T04:26:41.203Z,0
2017-04-15T04:27:40.869Z,0
2017-04-15T04:28:40.544Z,0
2017-04-15T04:29:41.117Z,0
2017-04-15T04:30:40.792Z,0
2017-04-15T04:31:41.077Z,0
2017-04-15T04:32:40.750Z,0
2017-04-15T04:33:41.049Z,0
2017-04-15T04:34:40.723Z,0
2017-04-15T04:35:40.991Z,0
2017-04-15T04:36:40.663Z,0
2017-04-15T04:37:40.785Z,0
2017-04-15T04:38:40.684Z,0
2017-04-15T04:39:40.935Z,0
2017-04-15T04:40:40.584Z,0
2017-04-15T04:41:40.855Z,0
2017-04-15T04:42:40.543Z,0
2017-04-15T04:43:40.255Z,0
2017-04-15T04:44:40.803Z,0
2017-04-15T04:45:40.470Z,0
2017-04-15T04:46:40.518Z,0
2017-04-15T04:47:40.083Z,0
2017-04-15T04:48:40.103Z,0
2017-04-15T04:49:40.387Z,0
2017-04-15T04:50:40.064Z,0
2017-04-15T04:51:40.663Z,0
2017-04-15T04:52:40.014Z,0
2017-04-15T04:53:40.633Z,0
2017-04-15T04:54:40.603Z,0
2017-04-15T04:55:40.573Z,0
2017-04-15T04:56:40.252Z,0
2017-04-15T04:57:40.528Z,0
2017-04-15T04:58:40.200Z,0
2017-04-15T04:59:40.187Z,0
2017-04-15T05:00:40.172Z,5
2017-04-15T05:01:40.448Z,5
2017-04-15T05:02:40.124Z,5
2017-04-15T05:03:39.996Z,5
2017-04-15T05:04:39.796Z,5
2017-04-15T05:05:40.043Z,5
2017-04-15T05:06:40.032Z,0
2017-04-15T05:07:39.813Z,0
2017-04-15T05:08:39.426Z,5
2017-04-15T05:09:39.982Z,5
2017-04-15T05:10:40.263Z,5
2017-04-15T05:11:39.619Z,5
2017-04-15T05:12:39.603Z,5
2017-04-15T05:13:39.976Z,5
2017-04-15T05:14:39.868Z,5
2017-04-15T05:15:39.553Z,5
2017-04-15T05:16:39.812Z,5
2017-04-15T05:17:40.105Z,5
2017-04-15T05:18:39.241Z,5
2017-04-15T05:19:40.082Z,10
2017-04-15T05:20:39.719Z,10
2017-04-15T05:21:39.417Z,10
2017-04-15T05:22:39.059Z,10
2017-04-15T05:23:40.003Z,10
2017-04-15T05:24:39.657Z,10
2017-04-15T05:25:39.626Z,10
2017-04-15T05:26:39.375Z,10
2017-04-15T05:27:39.611Z,5
2017-04-15T05:28:39.884Z,5
2017-04-15T05:29:39.916Z,10
2017-04-15T05:30:39.843Z,10
2017-04-15T05:31:39.485Z,10
2017-04-15T05:32:38.910Z,10
2017-04-15T05:33:39.149Z,10
2017-04-15T05:34:39.438Z,10
2017-04-15T05:35:39.842Z,10
2017-04-15T05:36:39.714Z,10
2017-04-15T05:37:39.406Z,10
2017-04-15T05:38:39.072Z,10
2017-04-15T05:39:39.685Z,10
2017-04-15T05:40:39.628Z,10
2017-04-15T05:41:38.692Z,10
2017-04-15T05:42:39.282Z,10
2017-04-15T05:43:38.943Z,10
2017-04-15T05:44:39.213Z,10
2017-04-15T05:45:39.705Z,10
2017-04-15T05:46:38.875Z,10
2017-04-15T05:47:39.252Z,15
2017-04-15T05:48:38.845Z,15
2017-04-15T05:49:39.123Z,15
2017-04-15T05:50:39.106Z,15
2017-04-15T05:51:39.452Z,10
2017-04-15T05:52:38.753Z,10
2017-04-15T05:53:38.723Z,15
2017-04-15T05:54:38.997Z,15
2017-04-15T05:55:38.673Z,15
2017-04-15T05:56:38.397Z,15
2017-04-15T05:57:38.974Z,15
2017-04-15T05:58:39.412Z,15
2017-04-15T05:59:38.925Z,15
2017-04-15T06:00:38.896Z,15
2017-04-15T06:01:38.849Z,10
2017-04-15T06:02:39.292Z,10
2017-04-15T06:03:38.825Z,10
2017-04-15T06:04:39.155Z,10
2017-04-15T06:05:38.775Z,15
2017-04-15T06:06:38.816Z,15
2017-04-15T06:07:38.757Z,10
2017-04-15T06:08:38.592Z,10
2017-04-15T06:09:39.225Z,10
2017-04-15T06:10:38.763Z,15
2017-04-15T06:11:38.664Z,15
2017-04-15T06:12:38.659Z,15
2017-04-15T06:13:38.943Z,10
2017-04-15T06:14:38.883Z,10
2017-04-15T06:15:38.925Z,10
2017-04-15T06:16:38.619Z,15
2017-04-15T06:17:38.584Z,15
2017-04-15T06:18:38.603Z,15
2017-04-15T06:19:38.583Z,15
2017-04-15T06:20:38.543Z,20
2017-04-15T06:21:38.752Z,20
2017-04-15T06:22:38.843Z,20
2017-04-15T06:23:38.704Z,20
2017-04-15T06:24:38.382Z,20
2017-04-15T06:25:38.001Z,20
2017-04-15T06:26:38.076Z,30
2017-04-15T06:27:38.320Z,30
2017-04-15T06:28:38.701Z,25
2017-04-15T06:29:38.662Z,15
2017-04-15T06:30:38.552Z,10
2017-04-15T06:31:37.624Z,10
2017-04-15T06:32:38.644Z,15
2017-04-15T06:33:37.662Z,15
2017-04-15T06:34:37.938Z,20
2017-04-15T06:35:38.167Z,20
2017-04-15T06:36:38.424Z,20
2017-04-15T06:37:38.157Z,20
2017-04-15T06:38:38.152Z,15
2017-04-15T06:39:37.762Z,10
2017-04-15T06:40:38.157Z,10
2017-04-15T06:41:37.852Z,10
2017-04-15T06:42:38.321Z,15
2017-04-15T06:43:38.325Z,15
2017-04-15T06:44:37.629Z,15
2017-04-15T06:45:38.051Z,20
2017-04-15T06:46:38.223Z,20
2017-04-15T06:47:38.300Z,20
2017-04-15T06:48:38.298Z,20
2017-04-15T06:49:37.902Z,25
2017-04-15T06:50:37.971Z,25
2017-04-15T06:51:38.223Z,30
2017-04-15T06:52:37.563Z,25
2017-04-15T06:53:38.133Z,20
2017-04-15T06:54:37.764Z,20
2017-04-15T06:55:38.064Z,20
2017-04-15T06:56:37.824Z,20
2017-04-15T06:57:37.725Z,20
2017-04-15T06:58:37.671Z,20
2017-04-15T06:59:38.032Z,20
2017-04-15T07:00:37.018Z,25
2017-04-15T07:01:37.753Z,25
2017-04-15T07:02:37.328Z,25
2017-04-15T07:03:37.682Z,25
2017-04-15T07:04:37.974Z,25
2017-04-15T07:05:37.661Z,30
2017-04-15T07:06:37.213Z,25
2017-04-15T07:07:37.892Z,25
2017-04-15T07:08:37.251Z,20
2017-04-15T07:09:37.130Z,20
2017-04-15T07:10:37.558Z,20
2017-04-15T07:11:37.224Z,25
2017-04-15T07:12:37.171Z,25
2017-04-15T07:13:37.626Z,25
2017-04-15T07:14:37.551Z,20
2017-04-15T07:15:37.786Z,25
2017-04-15T07:16:37.154Z,25
2017-04-15T07:17:37.292Z,25
2017-04-15T07:18:37.385Z,30
2017-04-15T07:19:37.364Z,30
2017-04-15T07:20:37.298Z,35
2017-04-15T07:21:36.869Z,40
2017-04-15T07:22:36.834Z,30
2017-04-15T07:23:37.615Z,35
2017-04-15T07:24:37.139Z,40
2017-04-15T07:25:37.443Z,35
2017-04-15T07:26:37.071Z,35
2017-04-15T07:27:37.388Z,35
2017-04-15T07:28:36.590Z,25
2017-04-15T07:29:36.701Z,20
2017-04-15T07:30:37.001Z,20
2017-04-15T07:31:36.665Z,20
2017-04-15T07:32:36.978Z,25
2017-04-15T07:33:36.943Z,20
2017-04-15T07:34:37.231Z,15
2017-04-15T07:35:36.595Z,15
2017-04-15T07:36:36.251Z,15
2017-04-15T07:37:37.167Z,15
2017-04-15T07:38:36.324Z,20
2017-04-15T07:39:36.196Z,20
2017-04-15T07:40:37.094Z,25
2017-04-15T07:41:36.473Z,30
2017-04-15T07:42:37.040Z,40
2017-04-15T07:43:36.448Z,45
2017-04-15T07:44:36.853Z,40
2017-04-15T07:45:37.214Z,25
2017-04-15T07:46:36.690Z,25
2017-04-15T07:47:36.338Z,30
2017-04-15T07:48:36.733Z,30
2017-04-15T07:49:36.901Z,20
2017-04-15T07:50:36.686Z,15
2017-04-15T07:51:36.548Z,15
2017-04-15T07:52:36.843Z,20
2017-04-15T07:53:36.193Z,30
2017-04-15T07:54:36.475Z,40
2017-04-15T07:55:36.480Z,55
2017-04-15T07:56:35.844Z,75
2017-04-15T07:57:36.164Z,80
2017-04-15T07:58:36.722Z,125
2017-04-15T07:59:36.383Z,150
2017-04-15T08:00:36.103Z,155
2017-04-15T08:01:36.648Z,135
2017-04-15T08:02:36.321Z,125
2017-04-15T08:03:36.711Z,140
2017-04-15T08:04:36.005Z,105
2017-04-15T08:05:36.278Z,110
2017-04-15T08:06:36.560Z,120
2017-04-15T08:07:36.541Z,115
2017-04-15T08:08:36.260Z,125
2017-04-15T08:09:36.201Z,125
2017-04-15T08:10:36.480Z,120
2017-04-15T08:11:36.170Z,95
2017-04-15T08:12:35.814Z,95
2017-04-15T08:13:36.171Z,100
2017-04-15T08:14:36.110Z,95
2017-04-15T08:15:36.093Z,90
2017-04-15T08:16:36.051Z,90
2017-04-15T08:17:36.323Z,85
2017-04-15T08:18:36.145Z,85
2017-04-15T08:19:36.349Z,80
2017-04-15T08:20:36.276Z,80
2017-04-15T08:21:36.269Z,75
2017-04-15T08:22:36.246Z,80
2017-04-15T08:23:35.949Z,75
2017-04-15T08:24:35.957Z,70
2017-04-15T08:25:36.186Z,80
2017-04-15T08:26:36.171Z,80
2017-04-15T08:27:36.167Z,85
2017-04-15T08:28:35.510Z,75
2017-04-15T08:29:35.173Z,65
2017-04-15T08:30:35.838Z,55
2017-04-15T08:31:36.085Z,55
2017-04-15T08:32:36.030Z,60
2017-04-15T08:33:35.748Z,60
2017-04-15T08:34:36.000Z,60
2017-04-15T08:35:35.722Z,55
2017-04-15T08:36:35.653Z,60
2017-04-15T08:37:35.641Z,75
2017-04-15T08:38:35.324Z,80
2017-04-15T08:39:35.892Z,75
2017-04-15T08:40:35.886Z,80
2017-04-15T08:41:35.862Z,80
2017-04-15T08:42:35.382Z,85
2017-04-15T08:43:35.325Z,95
2017-04-15T08:44:35.505Z,95
2017-04-15T08:45:35.472Z,110
2017-04-15T08:46:35.141Z,125
2017-04-15T08:47:35.123Z,155
2017-04-15T08:48:35.712Z,160
2017-04-15T08:49:35.402Z,160
2017-04-15T08:50:35.495Z,150
2017-04-15T08:51:35.062Z,130
2017-04-15T08:52:35.351Z,135
2017-04-15T08:53:35.334Z,155
2017-04-15T08:54:35.001Z,205
2017-04-15T08:55:34.987Z,260
2017-04-15T08:56:35.259Z,205
2017-04-15T08:57:35.336Z,210
2017-04-15T08:58:35.020Z,160
2017-04-15T08:59:35.543Z,210
2017-04-15T09:00:35.292Z,220
2017-04-15T09:01:34.553Z,225
2017-04-15T09:02:35.159Z,195
2017-04-15T09:03:34.848Z,185
2017-04-15T09:04:35.132Z,210
2017-04-15T09:05:35.102Z,160
2017-04-15T09:06:35.442Z,145
2017-04-15T09:07:35.062Z,135
2017-04-15T09:08:35.359Z,130
2017-04-15T09:09:34.735Z,125
2017-04-15T09:10:35.325Z,105
2017-04-15T09:11:34.983Z,100
2017-04-15T09:12:35.293Z,105
2017-04-15T09:13:35.088Z,100
2017-04-15T09:14:34.946Z,100
2017-04-15T09:15:35.412Z,90
2017-04-15T09:16:35.045Z,85
2017-04-15T09:17:34.565Z,80
2017-04-15T09:18:35.181Z,75
2017-04-15T09:19:35.153Z,75
2017-04-15T09:20:35.144Z,70
2017-04-15T09:21:34.505Z,70
2017-04-15T09:22:34.787Z,75
2017-04-15T09:23:35.001Z,75
2017-04-15T09:24:34.785Z,80
2017-04-15T09:25:34.742Z,90
2017-04-15T09:26:34.084Z,85
2017-04-15T09:27:34.690Z,80
2017-04-15T09:28:34.684Z,75
2017-04-15T09:29:34.643Z,80
2017-04-15T09:30:34.325Z,80
2017-04-15T09:31:34.308Z,80
2017-04-15T09:32:34.359Z,85
2017-04-15T09:33:34.572Z,90
2017-04-15T09:34:34.051Z,85
2017-04-15T09:35:34.241Z,80
2017-04-15T09:36:34.512Z,75
2017-04-15T09:37:34.220Z,75
2017-04-15T09:38:34.499Z,75
2017-04-15T09:39:34.801Z,75
2017-04-15T09:40:33.889Z,80
2017-04-15T09:41:34.283Z,80
2017-04-15T09:42:34.103Z,85
2017-04-15T09:43:34.183Z,85
2017-04-15T09:44:34.053Z,95
2017-04-15T09:45:34.362Z,95
2017-04-15T09:46:34.050Z,85
2017-04-15T09:47:34.121Z,70
2017-04-15T09:48:34.014Z,75
2017-04-15T09:49:34.281Z,85
2017-04-15T09:50:34.574Z,85
2017-04-15T09:51:34.273Z,70
2017-04-15T09:52:34.553Z,65
2017-04-15T09:53:33.681Z,55
2017-04-15T09:54:33.933Z,50
2017-04-15T09:55:34.185Z,50
2017-04-15T09:56:34.201Z,50
2017-04-15T09:57:34.123Z,50
2017-04-15T09:58:34.281Z,50
2017-04-15T09:59:33.902Z,50
2017-04-15T10:00:34.181Z,45
2017-04-15T10:01:34.374Z,40
2017-04-15T10:02:34.098Z,40
2017-04-15T10:03:34.033Z,35
2017-04-15T10:04:34.017Z,35
2017-04-15T10:05:33.996Z,30
2017-04-15T10:06:34.036Z,30
2017-04-15T10:07:33.637Z,30
2017-04-15T10:08:34.229Z,35
2017-04-15T10:09:33.971Z,40
2017-04-15T10:10:34.204Z,40
2017-04-15T10:11:33.904Z,45
2017-04-15T10:12:34.162Z,40
2017-04-15T10:13:34.125Z,40
2017-04-15T10:14:33.862Z,45
2017-04-15T10:15:33.837Z,40
2017-04-15T10:16:33.179Z,35
2017-04-15T10:17:33.461Z,35
2017-04-15T10:18:34.155Z,35
2017-04-15T10:19:34.030Z,35
2017-04-15T10:20:34.009Z,35
2017-04-15T10:21:33.988Z,40
2017-04-15T10:22:34.154Z,40
2017-04-15T10:23:33.952Z,40
2017-04-15T10:24:33.931Z,55
2017-04-15T10:25:33.655Z,50
2017-04-15T10:26:33.892Z,55
2017-04-15T10:27:33.858Z,55
2017-04-15T10:28:33.864Z,55
2017-04-15T10:29:33.844Z,55
2017-04-15T10:30:33.815Z,60
2017-04-15T10:31:33.904Z,70
2017-04-15T10:32:33.786Z,75
2017-04-15T10:33:33.776Z,90
2017-04-15T10:34:33.746Z,80
2017-04-15T10:35:33.731Z,80
2017-04-15T10:36:33.686Z,80
2017-04-15T10:37:33.674Z,85
2017-04-15T10:38:33.413Z,80
2017-04-15T10:39:33.029Z,80
2017-04-15T10:40:33.615Z,80
2017-04-15T10:41:32.982Z,85
2017-04-15T10:42:33.278Z,90
2017-04-15T10:43:33.332Z,95
2017-04-15T10:44:33.544Z,95
2017-04-15T10:45:33.211Z,95
2017-04-15T10:46:33.512Z,105
2017-04-15T10:47:33.753Z,110
2017-04-15T10:48:33.457Z,120
2017-04-15T10:49:33.443Z,125
2017-04-15T10:50:33.101Z,140
2017-04-15T10:51:33.403Z,150
2017-04-15T10:52:33.386Z,160
2017-04-15T10:53:33.118Z,165
2017-04-15T10:54:32.740Z,170
2017-04-15T10:55:32.407Z,160
2017-04-15T10:56:33.032Z,140
2017-04-15T10:57:32.709Z,125
2017-04-15T10:58:32.682Z,115
2017-04-15T10:59:32.655Z,105
2017-04-15T11:00:32.962Z,105
2017-04-15T11:01:33.253Z,105
2017-04-15T11:02:32.984Z,120
2017-04-15T11:03:32.892Z,130
2017-04-15T11:04:33.173Z,140
2017-04-15T11:05:32.889Z,140
2017-04-15T11:06:33.137Z,135
2017-04-15T11:07:32.814Z,130
2017-04-15T11:08:32.812Z,135
2017-04-15T11:09:32.775Z,135
2017-04-15T11:10:32.160Z,120
2017-04-15T11:11:32.112Z,120
2017-04-15T11:12:32.702Z,130
2017-04-15T11:13:32.824Z,125
2017-04-15T11:14:32.122Z,120
2017-04-15T11:15:32.460Z,115
2017-04-15T11:16:32.960Z,125
2017-04-15T11:17:32.304Z,130
2017-04-15T11:18:32.611Z,130
2017-04-15T11:19:32.599Z,120
2017-04-15T11:20:33.122Z,100
2017-04-15T11:21:32.839Z,90
2017-04-15T11:22:32.833Z,95
2017-04-15T11:23:32.244Z,90
2017-04-15T11:24:32.482Z,90
2017-04-15T11:25:32.464Z,90
2017-04-15T11:26:32.212Z,95
2017-04-15T11:27:32.741Z,90
2017-04-15T11:28:32.691Z,85
2017-04-15T11:29:32.724Z,80
2017-04-15T11:30:32.426Z,70
2017-04-15T11:31:32.401Z,60
2017-04-15T11:32:32.650Z,50
2017-04-15T11:33:32.035Z,45
2017-04-15T11:34:31.780Z,45
2017-04-15T11:35:32.291Z,45
2017-04-15T11:36:32.586Z,45
2017-04-15T11:37:32.648Z,40
2017-04-15T11:38:31.629Z,50
2017-04-15T11:39:32.216Z,60
2017-04-15T11:40:32.232Z,70
2017-04-15T11:41:32.497Z,80
2017-04-15T11:42:32.225Z,85
2017-04-15T11:43:32.150Z,90
2017-04-15T11:44:32.425Z,95
2017-04-15T11:45:32.143Z,115
2017-04-15T11:46:32.078Z,145
2017-04-15T11:47:32.114Z,185
2017-04-15T11:48:32.098Z,295
2017-04-15T11:49:32.336Z,265
2017-04-15T11:50:31.692Z,280
2017-04-15T11:51:31.683Z,310
2017-04-15T11:52:31.682Z,280
2017-04-15T11:53:32.264Z,280
2017-04-15T11:54:31.634Z,300
2017-04-15T11:55:32.241Z,380
2017-04-15T11:56:31.620Z,385
2017-04-15T11:57:31.617Z,305
2017-04-15T11:58:31.979Z,360
2017-04-15T11:59:31.947Z,290
2017-04-15T12:00:32.126Z,310
2017-04-15T12:01:32.004Z,285
2017-04-15T12:02:32.114Z,285
2017-04-15T12:03:32.086Z,270
2017-04-15T12:04:32.063Z,250
2017-04-15T12:05:32.072Z,230
2017-04-15T12:06:31.710Z,215
2017-04-15T12:07:32.005Z,185
2017-04-15T12:08:31.871Z,165
2017-04-15T12:09:31.399Z,130
2017-04-15T12:10:31.678Z,115
2017-04-15T12:11:31.957Z,100
2017-04-15T12:12:32.034Z,85
2017-04-15T12:13:31.642Z,85
2017-04-15T12:14:32.001Z,80
2017-04-15T12:15:31.595Z,75
2017-04-15T12:16:31.655Z,80
2017-04-15T12:17:31.837Z,75
2017-04-15T12:18:31.790Z,75
2017-04-15T12:19:31.542Z,80
2017-04-15T12:20:31.933Z,90
2017-04-15T12:21:31.175Z,110
2017-04-15T12:22:31.159Z,150
2017-04-15T12:23:31.734Z,160
2017-04-15T12:24:31.419Z,215
2017-04-15T12:25:31.387Z,185
2017-04-15T12:26:31.144Z,195
2017-04-15T12:27:31.687Z,195
2017-04-15T12:28:30.723Z,195
2017-04-15T12:29:31.661Z,210
2017-04-15T12:30:31.337Z,185
2017-04-15T12:31:31.625Z,175
2017-04-15T12:32:31.306Z,195
2017-04-15T12:33:30.949Z,205
2017-04-15T12:34:31.674Z,190
2017-04-15T12:35:31.543Z,205
2017-04-15T12:36:31.306Z,245
2017-04-15T12:37:31.513Z,255
2017-04-15T12:38:31.606Z,255
2017-04-15T12:39:30.844Z,265
2017-04-15T12:40:31.478Z,270
2017-04-15T12:41:31.141Z,260
2017-04-15T12:42:31.558Z,255
2017-04-15T12:43:31.620Z,245
2017-04-15T12:44:31.143Z,230
2017-04-15T12:45:30.447Z,210
2017-04-15T12:46:31.385Z,195
2017-04-15T12:47:31.003Z,180
2017-04-15T12:48:31.526Z,170
2017-04-15T12:49:31.004Z,160
2017-04-15T12:50:30.966Z,145
2017-04-15T12:51:30.966Z,135
2017-04-15T12:52:30.948Z,125
2017-04-15T12:53:30.620Z,115
2017-04-15T12:54:30.702Z,110
2017-04-15T12:55:30.883Z,110
2017-04-15T12:56:30.615Z,115
2017-04-15T12:57:31.206Z,120
2017-04-15T12:58:31.186Z,120
2017-04-15T12:59:31.396Z,120
2017-04-15T13:00:30.492Z,130
2017-04-15T13:01:30.843Z,150
2017-04-15T13:02:31.085Z,175
2017-04-15T13:03:31.071Z,180
2017-04-15T13:04:31.191Z,195
2017-04-15T13:05:30.715Z,215
2017-04-15T13:06:31.165Z,235
2017-04-15T13:07:31.154Z,230
2017-04-15T13:08:31.046Z,200
2017-04-15T13:09:30.662Z,185
2017-04-15T13:10:31.071Z,180
2017-04-15T13:11:30.667Z,170
2017-04-15T13:12:30.706Z,160
2017-04-15T13:13:30.987Z,150
2017-04-15T13:14:30.947Z,145
2017-04-15T13:15:30.987Z,140
2017-04-15T13:16:30.735Z,135
2017-04-15T13:17:30.812Z,125
2017-04-15T13:18:30.544Z,120
2017-04-15T13:19:30.867Z,110
2017-04-15T13:20:30.463Z,115
2017-04-15T13:21:30.168Z,120
2017-04-15T13:22:30.488Z,125
2017-04-15T13:23:30.597Z,140
2017-04-15T13:24:30.774Z,145
2017-04-15T13:25:30.426Z,150
2017-04-15T13:26:30.406Z,155
2017-04-15T13:27:30.683Z,145
2017-04-15T13:28:30.341Z,135
2017-04-15T13:29:30.660Z,125
2017-04-15T13:30:30.322Z,125
2017-04-15T13:31:30.345Z,120
2017-04-15T13:32:29.957Z,110
2017-04-15T13:33:30.628Z,100
2017-04-15T13:34:30.581Z,100
2017-04-15T13:35:30.529Z,100
2017-04-15T13:36:30.182Z,90
2017-04-15T13:37:30.529Z,85
2017-04-15T13:38:30.284Z,85
2017-04-15T13:39:30.302Z,85
2017-04-15T13:40:30.265Z,95
2017-04-15T13:41:30.117Z,100
2017-04-15T13:42:30.096Z,115
2017-04-15T13:43:29.888Z,135
2017-04-15T13:44:30.407Z,140
2017-04-15T13:45:30.425Z,150
2017-04-15T13:46:29.723Z,165
2017-04-15T13:47:29.993Z,175
2017-04-15T13:48:30.024Z,170
2017-04-15T13:49:30.573Z,185
2017-04-15T13:50:30.284Z,185
2017-04-15T13:51:30.277Z,180
2017-04-15T13:52:30.325Z,185
2017-04-15T13:53:30.320Z,180
2017-04-15T13:54:30.282Z,180
2017-04-15T13:55:30.193Z,180
2017-04-15T13:56:29.946Z,180
2017-04-15T13:57:30.165Z,175
2017-04-15T13:58:30.217Z,185
2017-04-15T13:59:29.573Z,180
2017-04-15T14:00:30.074Z,185
2017-04-15T14:01:30.097Z,190
2017-04-15T14:02:29.761Z,200
2017-04-15T14:03:29.434Z,205
2017-04-15T14:04:30.043Z,205
2017-04-15T14:05:30.070Z,210
2017-04-15T14:06:30.060Z,210
2017-04-15T14:07:30.053Z,195
2017-04-15T14:08:28.745Z,195
2017-04-15T14:09:29.938Z,185
2017-04-15T14:10:29.598Z,185
2017-04-15T14:11:29.652Z,185
2017-04-15T14:12:29.883Z,190
2017-04-15T14:13:29.903Z,185
2017-04-15T14:14:30.242Z,180
2017-04-15T14:15:29.839Z,180
2017-04-15T14:16:29.505Z,185
2017-04-15T14:17:29.783Z,185
2017-04-15T14:18:29.176Z,180
2017-04-15T14:19:29.249Z,175